createdAt,value
2022-09-23T00:00:14.773Z,73.69
2022-09-23T00:00:48.017Z,73.77
2022-09-23T00:01:20.522Z,74.20
2022-09-23T00:01:53.761Z,74.40
2022-09-23T00:02:25.770Z,74.10
2022-09-23T00:02:59.932Z,73.99
2022-09-23T00:03:33.353Z,74.03
2022-09-23T00:04:05.249Z,74.00
2022-09-23T00:04:37.095Z,74.08
2022-09-23T00:05:10.512Z,74.24
2022-09-23T00:05:43.060Z,74.47
2022-09-23T00:06:18.229Z,74.51
2022-09-23T00:06:50.095Z,74.39
2022-09-23T00:07:21.896Z,74.30
2022-09-23T00:07:55.230Z,73.97
2022-09-23T00:08:27.336Z,74.24
2022-09-23T00:08:59.286Z,74.50
2022-09-23T00:09:31.234Z,74.17
2022-09-23T00:10:03.123Z,74.19
2022-09-23T00:10:38.001Z,74.47
2022-09-23T00:11:11.295Z,74.36
2022-09-23T00:11:43.572Z,74.21
2022-09-23T00:12:15.481Z,73.73
2022-09-23T00:12:47.579Z,73.38
2022-09-23T00:13:19.433Z,73.21
2022-09-23T00:13:55.122Z,73.02
2022-09-23T00:14:27.435Z,73.48
2022-09-23T00:14:59.701Z,74.13
2022-09-23T00:15:33.912Z,74.19
2022-09-23T00:16:09.173Z,74.20
2022-09-23T00:16:41.079Z,74.40
2022-09-23T00:17:14.034Z,74.16
2022-09-23T00:17:46.090Z,74.12
2022-09-23T00:18:18.164Z,74.34
2022-09-23T00:18:50.852Z,74.56
2022-09-23T00:19:22.775Z,75.11
2022-09-23T00:19:55.415Z,74.99
2022-09-23T00:20:28.417Z,75.02
2022-09-23T00:21:08.312Z,75.04
2022-09-23T00:21:40.175Z,74.72
2022-09-23T00:22:13.748Z,74.52
2022-09-23T00:22:46.459Z,74.60
2022-09-23T00:23:18.271Z,74.79
2022-09-23T00:23:50.459Z,74.66
2022-09-23T00:24:23.468Z,74.83
2022-09-23T00:24:55.401Z,75.13
2022-09-23T00:25:29.684Z,74.90
2022-09-23T00:26:03.303Z,75.12
2022-09-23T00:26:35.251Z,75.14
2022-09-23T00:27:07.154Z,75.23
2022-09-23T00:27:39.763Z,75.92
2022-09-23T00:28:11.925Z,76.30
2022-09-23T00:28:43.997Z,76.72
2022-09-23T00:29:18.942Z,76.77
2022-09-23T00:29:50.784Z,76.43
2022-09-23T00:30:23.642Z,75.63
2022-09-23T00:30:55.611Z,74.87
2022-09-23T00:31:28.132Z,74.95
2022-09-23T00:32:00.147Z,75.05
2022-09-23T00:32:32.166Z,74.85
2022-09-23T00:33:04.036Z,74.73
2022-09-23T00:33:36.600Z,74.96
2022-09-23T00:34:11.082Z,74.79
2022-09-23T00:34:44.405Z,74.86
2022-09-23T00:35:16.419Z,74.82
2022-09-23T00:35:49.828Z,75.21
2022-09-23T00:36:21.680Z,75.30
2022-09-23T00:36:53.526Z,75.07
2022-09-23T00:37:25.564Z,74.61
2022-09-23T00:37:57.372Z,74.54
2022-09-23T00:38:29.680Z,74.49
2022-09-23T00:39:04.565Z,74.72
2022-09-23T00:39:36.614Z,75.11
2022-09-23T00:40:08.944Z,75.33
2022-09-23T00:40:46.215Z,75.26
2022-09-23T00:41:18.575Z,75.23
2022-09-23T00:41:50.776Z,74.95
2022-09-23T00:42:23.991Z,74.92
2022-09-23T00:42:55.936Z,74.67
2022-09-23T00:43:39.763Z,74.60
2022-09-23T00:44:43.106Z,74.82
2022-09-23T00:45:15.987Z,75.24
2022-09-23T00:45:50.469Z,75.32
2022-09-23T00:46:28.709Z,75.69
2022-09-23T00:47:00.714Z,75.67
2022-09-23T00:47:44.157Z,75.12
2022-09-23T00:48:20.437Z,74.97
2022-09-23T00:48:57.380Z,75.24
2022-09-23T00:49:30.244Z,75.96
2022-09-23T00:50:14.230Z,75.46
2022-09-23T00:50:51.012Z,74.94
2022-09-23T00:51:27.466Z,75.18
2022-09-23T00:52:06.775Z,75.48
2022-09-23T00:52:39.434Z,76.13
2022-09-23T00:53:16.318Z,76.16
2022-09-23T00:53:50.307Z,75.62
2022-09-23T00:54:27.344Z,75.21
2022-09-23T00:55:02.741Z,75.20
2022-09-23T00:55:46.041Z,75.10
2022-09-23T00:56:21.332Z,74.81
2022-09-23T00:56:54.304Z,74.91
2022-09-23T00:57:28.098Z,75.41
2022-09-23T00:58:02.795Z,75.06
2022-09-23T00:58:39.417Z,74.93
2022-09-23T00:59:11.667Z,75.25
2022-09-23T00:59:44.236Z,75.88
2022-09-23T01:00:16.369Z,75.78
2022-09-23T01:00:48.213Z,75.47
2022-09-23T01:01:21.123Z,74.99
2022-09-23T01:01:54.867Z,74.97
2022-09-23T01:02:28.300Z,74.98
2022-09-23T01:03:01.762Z,75.13
2022-09-23T01:03:34.171Z,75.08
2022-09-23T01:04:07.885Z,75.14
2022-09-23T01:04:40.765Z,75.28
2022-09-23T01:05:13.504Z,74.65
2022-09-23T01:05:47.059Z,74.75
2022-09-23T01:06:18.963Z,74.90
2022-09-23T01:06:50.817Z,75.47
2022-09-23T01:07:22.635Z,75.56
2022-09-23T01:07:57.612Z,75.29
2022-09-23T01:08:29.853Z,75.43
2022-09-23T01:09:01.864Z,75.29
2022-09-23T01:09:34.164Z,75.23
2022-09-23T01:10:07.810Z,75.07
2022-09-23T01:10:58.838Z,75.53
2022-09-23T01:11:57.295Z,75.65
2022-09-23T01:12:44.243Z,75.45
2022-09-23T01:13:51.631Z,75.45
2022-09-23T01:14:48.976Z,74.65
2022-09-23T01:15:44.205Z,75.06
2022-09-23T01:16:19.413Z,75.02
2022-09-23T01:17:11.977Z,75.11
2022-09-23T01:17:58.646Z,75.03
2022-09-23T01:18:48.883Z,74.71
2022-09-23T01:19:26.848Z,74.65
2022-09-23T01:20:48.179Z,74.87
2022-09-23T01:21:43.094Z,74.54
2022-09-23T01:22:24.106Z,74.21
2022-09-23T01:23:34.881Z,74.54
2022-09-23T01:24:07.839Z,74.64
2022-09-23T01:25:17.646Z,74.77
2022-09-23T01:26:19.318Z,75.02
2022-09-23T01:27:19.407Z,75.03
2022-09-23T01:27:54.170Z,75.11
2022-09-23T01:28:53.590Z,75.17
2022-09-23T01:29:50.268Z,74.88
2022-09-23T01:30:54.643Z,74.78
2022-09-23T01:31:54.501Z,74.69
2022-09-23T01:33:01.873Z,75.39
2022-09-23T01:33:55.709Z,75.11
2022-09-23T01:34:30.189Z,75.04
2022-09-23T01:35:10.735Z,74.79
2022-09-23T01:36:26.329Z,75.21
2022-09-23T01:37:13.678Z,76.12
2022-09-23T01:38:08.905Z,75.98
2022-09-23T01:38:59.127Z,75.62
2022-09-23T01:40:10.319Z,75.13
2022-09-23T01:41:16.654Z,75.48
2022-09-23T01:41:52.888Z,75.75
2022-09-23T01:42:32.342Z,75.66
2022-09-23T01:43:13.389Z,75.65
2022-09-23T01:43:59.730Z,75.24
2022-09-23T01:44:47.632Z,75.52
2022-09-23T01:45:34.368Z,75.72
2022-09-23T01:46:19.770Z,75.95
2022-09-23T01:47:00.757Z,75.25
2022-09-23T01:47:38.043Z,74.59
2022-09-23T01:48:14.046Z,74.75
2022-09-23T01:48:56.325Z,75.02
2022-09-23T01:49:34.660Z,74.44
2022-09-23T01:50:28.444Z,74.07
2022-09-23T01:51:09.252Z,74.13
2022-09-23T01:51:44.113Z,74.34
2022-09-23T01:52:28.705Z,74.10
2022-09-23T01:53:07.056Z,74.02
2022-09-23T01:53:55.129Z,74.08
2022-09-23T01:54:42.383Z,74.58
2022-09-23T01:55:20.766Z,74.52
2022-09-23T01:55:59.068Z,74.50
2022-09-23T01:56:36.604Z,74.52
2022-09-23T01:57:16.812Z,74.58
2022-09-23T01:57:55.506Z,74.47
2022-09-23T01:58:38.072Z,74.32
2022-09-23T01:59:15.145Z,74.58
2022-09-23T01:59:53.061Z,74.53
2022-09-23T02:00:29.939Z,74.12
2022-09-23T02:01:07.726Z,73.97
2022-09-23T02:01:50.858Z,74.44
2022-09-23T02:02:25.442Z,74.29
2022-09-23T02:03:01.541Z,74.40
2022-09-23T02:03:55.867Z,74.56
2022-09-23T02:04:39.686Z,74.83
2022-09-23T02:05:21.898Z,74.74
2022-09-23T02:05:58.896Z,74.81
2022-09-23T02:06:37.643Z,74.54
2022-09-23T02:07:16.591Z,74.44
2022-09-23T02:07:59.900Z,74.66
2022-09-23T02:08:37.752Z,74.84
2022-09-23T02:09:14.195Z,74.59
2022-09-23T02:09:54.016Z,74.95
2022-09-23T02:10:28.448Z,74.40
2022-09-23T02:11:08.400Z,74.43
2022-09-23T02:11:45.204Z,74.48
2022-09-23T02:12:20.604Z,74.68
2022-09-23T02:12:59.440Z,74.47
2022-09-23T02:14:03.549Z,74.58
2022-09-23T02:14:51.618Z,74.22
2022-09-23T02:15:27.826Z,74.20
2022-09-23T02:16:08.604Z,74.25
2022-09-23T02:16:51.511Z,74.46
2022-09-23T02:17:31.042Z,74.03
2022-09-23T02:18:09.900Z,74.42
2022-09-23T02:18:52.152Z,74.17
2022-09-23T02:19:23.912Z,74.04
2022-09-23T02:20:01.921Z,74.44
2022-09-23T02:20:37.065Z,74.28
2022-09-23T02:21:09.808Z,74.48
2022-09-23T02:21:47.414Z,74.84
2022-09-23T02:22:24.836Z,74.88
2022-09-23T02:23:14.867Z,74.70
2022-09-23T02:23:51.391Z,75.11
2022-09-23T02:24:34.818Z,75.03
2022-09-23T02:25:08.388Z,75.06
2022-09-23T02:26:05.649Z,74.95
2022-09-23T02:27:06.707Z,74.74
2022-09-23T02:27:44.621Z,74.89
2022-09-23T02:28:36.483Z,75.08
2022-09-23T02:29:20.576Z,75.01
2022-09-23T02:30:04.004Z,74.72
2022-09-23T02:30:49.085Z,74.43
2022-09-23T02:31:33.327Z,74.57
2022-09-23T02:32:35.853Z,74.38
2022-09-23T02:33:18.559Z,75.33
2022-09-23T02:34:17.847Z,75.65
2022-09-23T02:35:11.058Z,75.58
2022-09-23T02:35:53.953Z,75.54
2022-09-23T02:36:32.617Z,75.89
2022-09-23T02:37:17.108Z,75.71
2022-09-23T02:37:54.783Z,75.49
2022-09-23T02:38:31.873Z,75.06
2022-09-23T02:39:08.727Z,75.55
2022-09-23T02:40:05.694Z,75.35
2022-09-23T02:40:59.203Z,75.28
2022-09-23T02:41:53.535Z,75.41
2022-09-23T02:42:37.721Z,75.36
2022-09-23T02:43:19.889Z,75.41
2022-09-23T02:44:03.397Z,75.37
2022-09-23T02:44:36.081Z,75.47
2022-09-23T02:45:08.228Z,75.27
2022-09-23T02:45:40.158Z,75.43
2022-09-23T02:46:12.435Z,75.47
2022-09-23T02:46:45.006Z,75.49
2022-09-23T02:47:19.401Z,75.01
2022-09-23T02:47:57.158Z,74.87
2022-09-23T02:48:41.430Z,74.85
2022-09-23T02:49:27.559Z,74.96
2022-09-23T02:49:59.478Z,75.23
2022-09-23T02:50:32.487Z,74.93
2022-09-23T02:51:04.802Z,74.91
2022-09-23T02:51:38.230Z,75.01
2022-09-23T02:52:12.013Z,75.19
2022-09-23T02:52:44.904Z,75.12
2022-09-23T02:53:17.293Z,75.29
2022-09-23T02:53:49.242Z,75.12
2022-09-23T02:54:25.747Z,75.04
2022-09-23T02:54:57.823Z,75.01
2022-09-23T02:55:33.328Z,74.96
2022-09-23T02:56:21.957Z,74.87
2022-09-23T02:56:54.643Z,75.03
2022-09-23T02:57:26.784Z,74.89
2022-09-23T02:58:01.512Z,74.88
2022-09-23T02:58:34.385Z,74.91
2022-09-23T02:59:08.154Z,74.94
2022-09-23T02:59:41.095Z,74.94
2022-09-23T03:00:13.608Z,74.98
2022-09-23T03:01:11.107Z,74.76
2022-09-23T03:02:08.579Z,74.57
2022-09-23T03:03:19.326Z,74.56
2022-09-23T03:04:20.224Z,74.73
2022-09-23T03:05:19.014Z,74.44
2022-09-23T03:05:56.452Z,74.67
2022-09-23T03:06:39.714Z,75.03
2022-09-23T03:07:42.789Z,75.43
2022-09-23T03:08:29.683Z,75.23
2022-09-23T03:09:05.664Z,75.91
2022-09-23T03:09:52.075Z,75.68
2022-09-23T03:10:35.917Z,75.55
2022-09-23T03:11:11.243Z,75.04
2022-09-23T03:11:50.121Z,75.54
2022-09-23T03:12:42.189Z,75.82
2022-09-23T03:13:26.125Z,75.45
2022-09-23T03:14:05.130Z,75.39
2022-09-23T03:14:41.645Z,75.47
2022-09-23T03:15:19.358Z,74.89
2022-09-23T03:15:57.308Z,74.76
2022-09-23T03:16:56.184Z,74.77
2022-09-23T03:17:51.792Z,74.76
2022-09-23T03:18:35.047Z,74.20
2022-09-23T03:19:19.144Z,74.11
2022-09-23T03:20:02.761Z,74.78
2022-09-23T03:20:50.164Z,74.28
2022-09-23T03:21:22.276Z,74.62
2022-09-23T03:22:07.089Z,74.37
2022-09-23T03:22:46.719Z,74.26
2022-09-23T03:23:25.177Z,74.48
2022-09-23T03:24:00.665Z,74.94
2022-09-23T03:24:35.225Z,74.80
2022-09-23T03:25:11.657Z,74.82
2022-09-23T03:25:47.210Z,74.48
2022-09-23T03:26:24.932Z,73.99
2022-09-23T03:27:01.296Z,73.75
2022-09-23T03:27:36.251Z,74.10
2022-09-23T03:28:09.833Z,74.33
2022-09-23T03:28:44.860Z,74.96
2022-09-23T03:29:19.300Z,75.17
2022-09-23T03:29:54.112Z,74.45
2022-09-23T03:30:26.522Z,74.39
2022-09-23T03:31:01.762Z,74.74
2022-09-23T03:31:34.277Z,74.33
2022-09-23T03:32:08.265Z,73.96
2022-09-23T03:32:45.560Z,73.94
2022-09-23T03:33:23.895Z,74.27
2022-09-23T03:34:02.646Z,74.58
2022-09-23T03:34:36.775Z,74.04
2022-09-23T03:35:09.065Z,74.21
2022-09-23T03:36:16.363Z,74.55
2022-09-23T03:37:02.312Z,74.54
2022-09-23T03:38:09.552Z,74.60
2022-09-23T03:38:45.843Z,74.52
2022-09-23T03:39:37.661Z,74.98
2022-09-23T03:40:13.750Z,74.83
2022-09-23T03:40:50.939Z,74.59
2022-09-23T03:41:39.220Z,74.62
2022-09-23T03:42:16.721Z,74.27
2022-09-23T03:42:49.115Z,74.28
2022-09-23T03:43:21.205Z,74.53
2022-09-23T03:43:53.542Z,74.54
2022-09-23T03:44:25.449Z,74.75
2022-09-23T03:44:58.314Z,74.56
2022-09-23T03:45:33.128Z,74.58
2022-09-23T03:46:07.352Z,74.95
2022-09-23T03:46:40.275Z,74.62
2022-09-23T03:47:13.836Z,74.63
2022-09-23T03:47:46.554Z,74.64
2022-09-23T03:48:18.702Z,74.40
2022-09-23T03:48:50.692Z,74.88
2022-09-23T03:49:33.425Z,74.66
2022-09-23T03:50:06.100Z,74.73
2022-09-23T03:50:39.292Z,74.85
2022-09-23T03:51:31.304Z,74.89
2022-09-23T03:52:03.526Z,74.74
2022-09-23T03:52:35.398Z,74.67
2022-09-23T03:53:07.608Z,74.52
2022-09-23T03:53:39.777Z,74.53
2022-09-23T03:54:11.855Z,74.44
2022-09-23T03:54:44.111Z,74.71
2022-09-23T03:55:17.184Z,75.46
2022-09-23T03:55:49.088Z,75.42
2022-09-23T03:56:20.972Z,75.36
2022-09-23T03:56:52.872Z,75.22
2022-09-23T03:57:25.598Z,75.15
2022-09-23T03:57:57.447Z,74.97
2022-09-23T03:58:29.373Z,75.08
2022-09-23T03:59:01.741Z,75.25
2022-09-23T03:59:33.918Z,75.51
2022-09-23T04:00:07.556Z,75.24
2022-09-23T04:00:44.354Z,74.82
2022-09-23T04:01:16.662Z,74.49
2022-09-23T04:01:48.640Z,74.80
2022-09-23T04:02:21.051Z,74.75
2022-09-23T04:02:52.892Z,74.35
2022-09-23T04:03:26.166Z,75.14
2022-09-23T04:03:58.041Z,75.96
2022-09-23T04:04:33.979Z,76.24
2022-09-23T04:05:07.409Z,75.43
2022-09-23T04:05:39.343Z,74.83
2022-09-23T04:06:11.191Z,75.31
2022-09-23T04:06:43.424Z,75.20
2022-09-23T04:07:16.130Z,75.59
2022-09-23T04:07:49.187Z,75.44
2022-09-23T04:08:21.038Z,75.17
2022-09-23T04:08:52.860Z,75.72
2022-09-23T04:09:24.806Z,75.61
2022-09-23T04:09:56.650Z,75.51
2022-09-23T04:10:28.469Z,75.19
2022-09-23T04:11:01.967Z,75.03
2022-09-23T04:11:33.912Z,75.35
2022-09-23T04:12:06.925Z,75.06
2022-09-23T04:12:38.821Z,74.93
2022-09-23T04:13:10.759Z,74.93
2022-09-23T04:13:42.689Z,75.34
2022-09-23T04:14:15.116Z,75.44
2022-09-23T04:14:47.201Z,75.06
2022-09-23T04:15:19.049Z,74.94
2022-09-23T04:15:51.825Z,74.86
2022-09-23T04:16:23.822Z,75.25
2022-09-23T04:16:56.481Z,75.27
2022-09-23T04:17:28.664Z,75.52
2022-09-23T04:18:00.465Z,75.53
2022-09-23T04:18:32.360Z,88.41
2022-09-23T04:19:05.095Z,85.17
2022-09-23T04:19:37.159Z,80.05
2022-09-23T04:20:09.422Z,77.66
2022-09-23T04:20:41.260Z,76.28
2022-09-23T04:21:13.073Z,75.57
2022-09-23T04:21:45.547Z,75.10
2022-09-23T04:22:17.366Z,74.94
2022-09-23T04:22:49.496Z,74.84
2022-09-23T04:23:21.325Z,74.95
2022-09-23T04:23:53.168Z,75.04
2022-09-23T04:24:25.073Z,74.78
2022-09-23T04:24:57.411Z,74.60
2022-09-23T04:25:29.288Z,74.55
2022-09-23T04:26:01.146Z,74.36
2022-09-23T04:26:34.060Z,74.50
2022-09-23T04:27:06.073Z,76.40
2022-09-23T04:27:38.158Z,76.51
2022-09-23T04:28:10.373Z,76.46
2022-09-23T04:28:42.397Z,75.59
2022-09-23T04:29:14.282Z,75.14
2022-09-23T04:29:46.143Z,78.01
2022-09-23T04:30:18.712Z,75.89
2022-09-23T04:30:51.276Z,74.52
2022-09-23T04:31:23.962Z,74.24
2022-09-23T04:31:55.943Z,73.97
2022-09-23T04:32:27.986Z,74.37
2022-09-23T04:32:59.808Z,74.22
2022-09-23T04:33:32.471Z,74.25
2022-09-23T04:34:04.288Z,74.15
2022-09-23T04:34:36.130Z,73.93
2022-09-23T04:35:08.422Z,73.76
2022-09-23T04:35:41.810Z,73.75
2022-09-23T04:36:13.660Z,73.98
2022-09-23T04:36:46.842Z,74.00
2022-09-23T04:37:18.691Z,74.74
2022-09-23T04:37:50.568Z,74.83
2022-09-23T04:38:22.503Z,74.70
2022-09-23T04:38:54.848Z,74.48
2022-09-23T04:39:26.817Z,74.33
2022-09-23T04:39:58.862Z,74.76
2022-09-23T04:40:30.803Z,74.71
2022-09-23T04:41:02.906Z,74.93
2022-09-23T04:41:34.808Z,75.43
2022-09-23T04:42:07.037Z,75.42
2022-09-23T04:42:38.866Z,75.07
2022-09-23T04:43:13.558Z,74.93
2022-09-23T04:43:45.967Z,75.02
2022-09-23T04:44:18.882Z,74.92
2022-09-23T04:44:50.699Z,74.94
2022-09-23T04:45:22.537Z,75.08
2022-09-23T04:46:01.573Z,75.27
2022-09-23T04:46:33.544Z,74.96
2022-09-23T04:47:05.583Z,74.68
2022-09-23T04:47:37.531Z,74.79
2022-09-23T04:48:10.465Z,75.08
2022-09-23T04:48:42.724Z,75.46
2022-09-23T04:49:16.058Z,75.24
2022-09-23T04:49:48.212Z,75.09
2022-09-23T04:50:20.363Z,75.03
2022-09-23T04:50:52.190Z,75.04
2022-09-23T04:51:26.181Z,75.14
2022-09-23T04:51:58.014Z,75.17
2022-09-23T04:52:31.227Z,75.25
2022-09-23T04:53:03.999Z,75.64
2022-09-23T04:53:37.111Z,75.93
2022-09-23T04:54:10.503Z,76.16
2022-09-23T04:54:42.356Z,76.21
2022-09-23T04:55:14.608Z,77.37
2022-09-23T04:55:46.475Z,77.61
2022-09-23T04:56:20.963Z,77.41
2022-09-23T04:56:52.811Z,76.57
2022-09-23T04:57:24.702Z,76.18
2022-09-23T04:57:56.612Z,76.21
2022-09-23T04:58:29.107Z,76.26
2022-09-23T04:59:01.756Z,75.52
2022-09-23T04:59:33.837Z,75.44
2022-09-23T05:00:06.376Z,75.64
2022-09-23T05:00:38.621Z,75.82
2022-09-23T05:01:31.298Z,75.79
2022-09-23T05:02:03.313Z,75.98
2022-09-23T05:02:35.686Z,76.10
2022-09-23T05:03:07.595Z,76.01
2022-09-23T05:03:40.245Z,75.82
2022-09-23T05:04:13.972Z,75.72
2022-09-23T05:04:45.961Z,75.64
2022-09-23T05:05:22.326Z,76.23
2022-09-23T05:05:59.948Z,76.24
2022-09-23T05:06:34.567Z,76.04
2022-09-23T05:07:06.437Z,75.95
2022-09-23T05:07:38.792Z,76.22
2022-09-23T05:08:10.672Z,76.14
2022-09-23T05:08:53.853Z,76.25
2022-09-23T05:09:25.697Z,76.80
2022-09-23T05:09:57.670Z,77.21
2022-09-23T05:10:29.528Z,77.14
2022-09-23T05:11:04.874Z,76.88
2022-09-23T05:11:36.745Z,76.51
2022-09-23T05:12:08.644Z,76.36
2022-09-23T05:12:40.551Z,76.32
2022-09-23T05:13:12.414Z,76.26
2022-09-23T05:13:46.322Z,76.30
2022-09-23T05:14:18.226Z,76.22
2022-09-23T05:14:50.679Z,76.02
2022-09-23T05:15:22.569Z,76.25
2022-09-23T05:15:59.233Z,76.33
2022-09-23T05:16:31.563Z,76.17
2022-09-23T05:17:03.505Z,76.06
2022-09-23T05:17:37.358Z,76.33
2022-09-23T05:18:09.309Z,76.56
2022-09-23T05:18:42.875Z,76.54
2022-09-23T05:19:15.495Z,75.95
2022-09-23T05:19:47.384Z,75.82
2022-09-23T05:20:19.263Z,75.87
2022-09-23T05:20:55.548Z,75.88
2022-09-23T05:21:29.030Z,76.09
2022-09-23T05:22:01.222Z,75.88
2022-09-23T05:22:33.121Z,75.75
2022-09-23T05:23:04.988Z,75.46
2022-09-23T05:23:37.663Z,74.66
2022-09-23T05:24:10.148Z,74.34
2022-09-23T05:24:42.049Z,74.26
2022-09-23T05:25:13.964Z,73.38
2022-09-23T05:25:46.314Z,71.93
2022-09-23T05:26:18.223Z,70.67
2022-09-23T05:26:50.684Z,69.85
2022-09-23T05:27:22.816Z,69.17
2022-09-23T05:27:54.724Z,68.75
2022-09-23T05:28:29.950Z,68.29
2022-09-23T05:29:01.840Z,68.18
2022-09-23T05:29:34.905Z,68.08
2022-09-23T05:30:07.490Z,67.67
2022-09-23T05:30:39.390Z,67.33
2022-09-23T05:31:19.905Z,67.02
2022-09-23T05:31:52.339Z,67.06
2022-09-23T05:32:24.631Z,66.78
2022-09-23T05:32:56.635Z,66.55
2022-09-23T05:33:29.997Z,66.08
2022-09-23T05:34:04.032Z,65.97
2022-09-23T05:34:35.944Z,65.95
2022-09-23T05:35:08.117Z,66.00
2022-09-23T05:35:40.112Z,66.17
2022-09-23T05:36:12.926Z,66.06
2022-09-23T05:36:44.770Z,66.12
2022-09-23T05:37:16.647Z,66.05
2022-09-23T05:37:48.776Z,78.36
2022-09-23T05:38:20.590Z,75.19
2022-09-23T05:38:54.676Z,68.45
2022-09-23T05:39:26.611Z,76.01
2022-09-23T05:39:58.450Z,86.27
2022-09-23T05:40:30.358Z,78.22
2022-09-23T05:41:11.366Z,72.64
2022-09-23T05:41:43.555Z,68.24
2022-09-23T05:42:18.157Z,70.00
2022-09-23T05:42:51.399Z,67.93
2022-09-23T05:43:23.719Z,67.60
2022-09-23T05:43:56.570Z,66.63
2022-09-23T05:44:28.432Z,65.45
2022-09-23T05:45:00.445Z,65.27
2022-09-23T05:45:32.823Z,76.62
2022-09-23T05:46:08.356Z,68.92
2022-09-23T05:46:40.569Z,68.08
2022-09-23T05:47:12.499Z,69.98
2022-09-23T05:47:44.619Z,69.24
2022-09-23T05:48:16.817Z,68.95
2022-09-23T05:48:49.309Z,68.88
2022-09-23T05:49:33.055Z,68.58
2022-09-23T05:50:13.038Z,68.29
2022-09-23T05:50:52.392Z,68.66
2022-09-23T05:51:30.651Z,68.36
2022-09-23T05:52:03.009Z,67.88
2022-09-23T05:52:34.874Z,67.39
2022-09-23T05:53:06.699Z,67.14
2022-09-23T05:53:40.951Z,67.21
2022-09-23T05:54:12.818Z,67.45
2022-09-23T05:54:44.677Z,67.22
2022-09-23T05:55:16.862Z,66.95
2022-09-23T05:55:48.904Z,66.91
2022-09-23T05:56:24.378Z,67.38
2022-09-23T05:56:56.608Z,67.35
2022-09-23T05:57:29.537Z,67.49
2022-09-23T05:58:01.377Z,67.68
2022-09-23T05:58:33.900Z,66.82
2022-09-23T05:59:06.780Z,66.29
2022-09-23T05:59:39.116Z,65.53
2022-09-23T06:00:11.405Z,65.04
2022-09-23T06:00:44.156Z,64.62
2022-09-23T06:01:21.100Z,64.45
2022-09-23T06:01:56.290Z,64.35
2022-09-23T06:02:28.508Z,63.95
2022-09-23T06:03:00.439Z,64.18
2022-09-23T06:03:32.351Z,64.45
2022-09-23T06:04:06.147Z,64.63
2022-09-23T06:04:38.170Z,64.46
2022-09-23T06:05:11.809Z,64.71
2022-09-23T06:05:43.870Z,64.78
2022-09-23T06:06:20.146Z,64.61
2022-09-23T06:06:53.166Z,64.30
2022-09-23T06:07:25.503Z,64.03
2022-09-23T06:07:58.407Z,63.76
2022-09-23T06:08:30.296Z,63.76
2022-09-23T06:09:02.558Z,63.79
2022-09-23T06:09:36.716Z,63.71
2022-09-23T06:10:08.896Z,63.78
2022-09-23T06:10:43.020Z,64.20
2022-09-23T06:11:15.142Z,64.50
2022-09-23T06:11:47.012Z,64.31
2022-09-23T06:12:19.167Z,63.99
2022-09-23T06:12:51.022Z,63.82
2022-09-23T06:13:22.932Z,63.43
2022-09-23T06:13:56.504Z,63.37
2022-09-23T06:14:28.763Z,63.33
2022-09-23T06:15:01.016Z,63.35
2022-09-23T06:15:33.012Z,63.53
2022-09-23T06:16:10.825Z,63.50
2022-09-23T06:16:43.192Z,63.55
2022-09-23T06:17:15.138Z,63.53
2022-09-23T06:17:50.540Z,63.39
2022-09-23T06:18:22.354Z,63.33
2022-09-23T06:18:54.193Z,62.94
2022-09-23T06:19:26.027Z,62.77
2022-09-23T06:19:57.941Z,62.60
2022-09-23T06:20:30.032Z,62.57
2022-09-23T06:21:02.917Z,62.47
2022-09-23T06:21:37.329Z,63.00
2022-09-23T06:22:10.858Z,62.82
2022-09-23T06:22:42.670Z,62.68
2022-09-23T06:23:14.800Z,62.53
2022-09-23T06:23:47.108Z,62.45
2022-09-23T06:24:21.978Z,62.26
2022-09-23T06:24:55.695Z,62.42
2022-09-23T06:25:27.514Z,62.62
2022-09-23T06:26:04.316Z,62.58
2022-09-23T06:26:38.281Z,62.66
2022-09-23T06:27:10.275Z,62.67
2022-09-23T06:27:42.159Z,62.68
2022-09-23T06:28:14.592Z,62.79
2022-09-23T06:28:46.788Z,62.91
2022-09-23T06:29:18.653Z,62.72
2022-09-23T06:29:52.447Z,62.38
2022-09-23T06:30:24.748Z,61.90
2022-09-23T06:30:58.093Z,63.91
2022-09-23T06:31:30.283Z,62.30
2022-09-23T06:32:02.598Z,61.79
2022-09-23T06:32:34.521Z,61.51
2022-09-23T06:33:06.475Z,61.40
2022-09-23T06:33:38.970Z,61.81
2022-09-23T06:34:13.638Z,61.80
2022-09-23T06:34:51.740Z,61.51
2022-09-23T06:35:27.869Z,61.47
2022-09-23T06:36:01.832Z,61.36
2022-09-23T06:36:42.656Z,60.98
2022-09-23T06:37:20.302Z,61.13
2022-09-23T06:37:53.763Z,60.98
2022-09-23T06:38:27.288Z,61.39
2022-09-23T06:38:59.507Z,61.37
2022-09-23T06:39:31.401Z,61.15
2022-09-23T06:40:03.504Z,59.41
2022-09-23T06:40:35.537Z,59.50
2022-09-23T06:41:07.614Z,60.42
2022-09-23T06:41:39.493Z,60.84
2022-09-23T06:42:15.892Z,60.57
2022-09-23T06:42:52.259Z,60.28
2022-09-23T06:43:25.950Z,60.05
2022-09-23T06:43:57.824Z,59.21
2022-09-23T06:44:29.986Z,59.49
2022-09-23T06:45:02.185Z,59.23
2022-09-23T06:45:34.160Z,58.77
2022-09-23T06:46:07.703Z,58.00
2022-09-23T06:46:39.625Z,57.98
2022-09-23T06:47:11.444Z,58.36
2022-09-23T06:47:44.373Z,58.62
2022-09-23T06:48:16.221Z,58.51
2022-09-23T06:48:49.154Z,58.35
2022-09-23T06:49:21.605Z,57.71
2022-09-23T06:49:53.724Z,57.98
2022-09-23T06:50:26.859Z,58.16
2022-09-23T06:51:03.590Z,58.33
2022-09-23T06:51:38.064Z,56.90
2022-09-23T06:52:11.090Z,57.11
2022-09-23T06:52:50.061Z,57.51
2022-09-23T06:53:25.092Z,57.56
2022-09-23T06:53:56.956Z,56.90
2022-09-23T06:54:30.900Z,57.09
2022-09-23T06:55:03.094Z,57.12
2022-09-23T06:55:35.070Z,57.28
2022-09-23T06:56:11.428Z,57.23
2022-09-23T06:56:47.401Z,56.99
2022-09-23T06:57:19.735Z,56.09
2022-09-23T06:57:51.574Z,56.34
2022-09-23T06:58:23.402Z,56.01
2022-09-23T06:58:55.227Z,56.15
2022-09-23T06:59:27.084Z,56.41
2022-09-23T06:59:59.377Z,56.50
2022-09-23T07:00:31.539Z,58.34
2022-09-23T07:01:07.172Z,57.62
2022-09-23T07:01:39.317Z,56.20
2022-09-23T07:02:12.093Z,54.82
2022-09-23T07:02:44.164Z,53.84
2022-09-23T07:03:16.061Z,53.85
2022-09-23T07:03:48.588Z,54.31
2022-09-23T07:04:20.501Z,54.47
2022-09-23T07:04:53.099Z,54.65
2022-09-23T07:05:24.935Z,54.54
2022-09-23T07:05:57.541Z,54.65
2022-09-23T07:06:29.395Z,54.98
2022-09-23T07:07:01.298Z,54.99
2022-09-23T07:07:33.127Z,55.16
2022-09-23T07:08:12.174Z,54.54
2022-09-23T07:08:47.116Z,54.07
2022-09-23T07:09:19.195Z,53.47
2022-09-23T07:09:51.291Z,54.12
2022-09-23T07:10:23.167Z,53.52
2022-09-23T07:10:57.653Z,53.16
2022-09-23T07:11:30.138Z,53.24
2022-09-23T07:12:02.219Z,53.52
2022-09-23T07:12:34.544Z,53.97
2022-09-23T07:13:06.408Z,53.99
2022-09-23T07:13:38.330Z,53.45
2022-09-23T07:14:10.179Z,53.26
2022-09-23T07:14:42.033Z,53.15
2022-09-23T07:15:15.416Z,53.53
2022-09-23T07:15:51.935Z,53.19
2022-09-23T07:16:23.958Z,52.89
2022-09-23T07:16:56.150Z,53.13
2022-09-23T07:17:28.111Z,53.39
2022-09-23T07:17:59.968Z,53.20
2022-09-23T07:18:36.773Z,53.60
2022-09-23T07:19:08.992Z,53.07
2022-09-23T07:19:40.874Z,53.45
2022-09-23T07:20:12.835Z,53.57
2022-09-23T07:20:45.596Z,53.94
2022-09-23T07:21:18.725Z,53.45
2022-09-23T07:21:50.578Z,53.05
2022-09-23T07:22:24.960Z,53.44
2022-09-23T07:22:56.935Z,53.06
2022-09-23T07:23:28.811Z,52.42
2022-09-23T07:24:01.213Z,52.44
2022-09-23T07:24:34.267Z,52.49
2022-09-23T07:25:06.418Z,52.22
2022-09-23T07:25:38.340Z,52.62
2022-09-23T07:26:10.621Z,53.04
2022-09-23T07:26:45.660Z,53.35
2022-09-23T07:27:19.883Z,53.34
2022-09-23T07:27:52.014Z,53.27
2022-09-23T07:28:24.088Z,53.15
2022-09-23T07:28:57.143Z,53.43
2022-09-23T07:29:32.396Z,52.73
2022-09-23T07:30:20.039Z,52.85
2022-09-23T07:31:00.378Z,52.76
2022-09-23T07:31:39.348Z,52.47
2022-09-23T07:32:14.467Z,52.51
2022-09-23T07:32:49.106Z,52.59
2022-09-23T07:33:31.471Z,52.02
2022-09-23T07:34:04.505Z,50.53
2022-09-23T07:34:36.563Z,50.49
2022-09-23T07:35:10.774Z,50.91
2022-09-23T07:35:42.831Z,50.44
2022-09-23T07:36:19.200Z,50.44
2022-09-23T07:36:51.066Z,50.13
2022-09-23T07:37:23.112Z,50.38
2022-09-23T07:37:54.989Z,51.17
2022-09-23T07:38:31.471Z,51.21
2022-09-23T07:39:03.963Z,51.91
2022-09-23T07:39:36.780Z,52.01
2022-09-23T07:40:09.569Z,51.70
2022-09-23T07:40:41.558Z,51.33
2022-09-23T07:41:17.123Z,50.97
2022-09-23T07:41:49.343Z,50.52
2022-09-23T07:42:21.198Z,50.67
2022-09-23T07:42:53.530Z,49.83
2022-09-23T07:43:27.246Z,49.92
2022-09-23T07:44:00.637Z,49.84